createdAt,value
2022-08-08T00:00:53.279Z,15.60
2022-08-08T00:03:32.338Z,15.50
2022-08-08T00:06:04.586Z,15.50
2022-08-08T00:08:53.273Z,15.50
2022-08-08T00:11:46.513Z,15.40
2022-08-08T00:15:00.053Z,15.40
2022-08-08T00:18:03.293Z,15.30
2022-08-08T00:20:41.268Z,15.40
2022-08-08T00:23:43.154Z,15.30
2022-08-08T00:26:30.930Z,15.10
2022-08-08T00:29:44.927Z,15.20
2022-08-08T00:32:45.799Z,15.30
2022-08-08T00:35:48.829Z,15.20
2022-08-08T00:38:51.612Z,15.10
2022-08-08T00:42:08.851Z,15.10
2022-08-08T00:45:32.412Z,15.00
2022-08-08T00:48:40.659Z,14.90
2022-08-08T00:51:15.177Z,14.80
2022-08-08T00:54:21.098Z,14.80
2022-08-08T00:57:34.106Z,14.70
2022-08-08T01:00:22.310Z,14.70
2022-08-08T01:04:02.320Z,14.60
2022-08-08T01:06:40.807Z,14.60
2022-08-08T01:09:41.575Z,14.50
2022-08-08T01:12:29.821Z,14.50
2022-08-08T01:15:43.317Z,14.50
2022-08-08T01:18:54.144Z,14.50
2022-08-08T01:22:13.458Z,14.40
2022-08-08T01:25:09.699Z,14.40
2022-08-08T01:28:15.628Z,14.40
2022-08-08T01:32:13.375Z,14.30
2022-08-08T01:34:09.648Z,14.30
2022-08-08T01:36:43.559Z,14.20
2022-08-08T01:39:53.572Z,14.20
2022-08-08T01:42:46.831Z,14.20
2022-08-08T01:45:23.349Z,14.10
2022-08-08T01:48:27.792Z,14.10
2022-08-08T01:52:32.592Z,14.00
2022-08-08T01:55:19.229Z,14.00
2022-08-08T01:58:10.946Z,14.00
2022-08-08T02:01:16.094Z,14.10
2022-08-08T02:04:16.852Z,14.00
2022-08-08T02:07:07.181Z,14.00
2022-08-08T02:10:14.356Z,14.00
2022-08-08T02:13:06.653Z,14.00
2022-08-08T02:15:43.834Z,13.90
2022-08-08T02:18:14.199Z,13.90
2022-08-08T02:21:26.470Z,13.80
2022-08-08T02:24:28.818Z,13.80
2022-08-08T02:27:10.901Z,13.70
2022-08-08T02:30:00.864Z,13.70
2022-08-08T02:33:01.205Z,13.70
2022-08-08T02:36:05.243Z,13.70
2022-08-08T02:38:30.220Z,13.70
2022-08-08T02:41:59.204Z,13.50
2022-08-08T02:44:57.168Z,13.60
2022-08-08T02:47:55.904Z,13.60
2022-08-08T02:50:35.552Z,13.60
2022-08-08T02:53:26.223Z,13.60
2022-08-08T02:56:32.140Z,13.50
2022-08-08T02:59:37.651Z,13.50
2022-08-08T03:02:30.588Z,13.50
2022-08-08T03:05:46.635Z,13.50
2022-08-08T03:08:37.366Z,13.40
2022-08-08T03:12:01.512Z,13.40
2022-08-08T03:15:56.988Z,13.30
2022-08-08T03:18:05.007Z,13.30
2022-08-08T03:20:51.353Z,13.30
2022-08-08T03:23:23.803Z,13.20
2022-08-08T03:25:58.429Z,13.20
2022-08-08T03:28:43.487Z,13.20
2022-08-08T03:32:06.674Z,13.20
2022-08-08T03:34:19.990Z,13.20
2022-08-08T03:36:52.305Z,13.10
2022-08-08T03:39:21.761Z,13.10
2022-08-08T03:42:27.824Z,13.10
2022-08-08T03:44:40.961Z,13.20
2022-08-08T03:47:22.094Z,13.10
2022-08-08T03:50:00.360Z,13.10
2022-08-08T03:52:35.222Z,13.10
2022-08-08T03:55:56.536Z,13.00
2022-08-08T03:58:31.854Z,13.10
2022-08-08T04:01:02.098Z,13.00
2022-08-08T04:03:57.837Z,13.00
2022-08-08T04:06:31.088Z,13.00
2022-08-08T04:09:08.841Z,13.00
2022-08-08T04:11:57.659Z,13.00
2022-08-08T04:14:46.845Z,12.90
2022-08-08T04:17:45.687Z,12.90
2022-08-08T04:20:08.305Z,12.90
2022-08-08T04:22:38.067Z,12.90
2022-08-08T04:25:08.710Z,12.90
2022-08-08T04:28:34.498Z,12.90
2022-08-08T04:30:36.628Z,12.80
2022-08-08T04:33:12.423Z,12.80
2022-08-08T04:35:51.311Z,12.80
2022-08-08T04:38:22.276Z,12.80
2022-08-08T04:40:54.487Z,12.80
2022-08-08T04:43:32.449Z,12.80
2022-08-08T04:46:15.218Z,12.80
2022-08-08T04:48:43.719Z,12.80
2022-08-08T04:51:12.073Z,12.90
2022-08-08T04:54:27.629Z,12.80
2022-08-08T04:56:32.958Z,12.90
2022-08-08T04:59:02.545Z,12.90
2022-08-08T05:01:35.282Z,12.90
2022-08-08T05:04:11.081Z,12.90
2022-08-08T05:06:45.263Z,12.90
2022-08-08T05:09:13.394Z,12.90
2022-08-08T05:11:47.670Z,12.90
2022-08-08T05:14:26.099Z,12.90
2022-08-08T05:17:21.642Z,12.90
2022-08-08T05:20:10.148Z,12.90
2022-08-08T05:22:43.373Z,12.90
2022-08-08T05:25:12.750Z,13.00
2022-08-08T05:27:45.570Z,13.00
2022-08-08T05:30:28.542Z,13.00
2022-08-08T05:32:58.205Z,13.70
2022-08-08T05:35:39.698Z,13.10
2022-08-08T05:38:31.911Z,13.10
2022-08-08T05:41:10.833Z,13.20
2022-08-08T05:44:03.963Z,13.20
2022-08-08T05:46:36.149Z,13.30
2022-08-08T05:49:11.287Z,13.40
2022-08-08T05:51:49.047Z,13.40
2022-08-08T05:54:27.539Z,13.50
2022-08-08T05:57:57.551Z,13.50
2022-08-08T06:00:25.076Z,13.70
2022-08-08T06:03:17.514Z,13.60
2022-08-08T06:06:06.654Z,15.00
2022-08-08T06:08:54.815Z,14.00
2022-08-08T06:11:28.275Z,13.90
2022-08-08T06:13:57.883Z,14.00
2022-08-08T06:16:30.238Z,14.10
2022-08-08T06:19:19.913Z,14.20
2022-08-08T06:21:57.485Z,14.10
2022-08-08T06:24:40.188Z,14.30
2022-08-08T06:27:18.132Z,14.40
2022-08-08T06:30:07.276Z,14.30
2022-08-08T06:32:55.168Z,14.40
2022-08-08T06:36:06.807Z,14.50
2022-08-08T06:38:28.874Z,14.90
2022-08-08T06:41:08.290Z,15.10
2022-08-08T06:43:47.642Z,14.90
2022-08-08T06:46:29.960Z,15.10
2022-08-08T06:49:00.876Z,15.10
2022-08-08T06:51:46.769Z,15.30
2022-08-08T06:54:22.471Z,15.30
2022-08-08T06:56:57.500Z,15.50
2022-08-08T06:59:28.431Z,15.00
2022-08-08T07:02:28.922Z,15.90
2022-08-08T07:05:11.710Z,15.80
2022-08-08T07:08:04.538Z,15.90
2022-08-08T07:10:42.075Z,16.20
2022-08-08T07:13:33.175Z,16.50
2022-08-08T07:16:10.767Z,16.30
2022-08-08T07:19:09.228Z,16.40
2022-08-08T07:22:00.537Z,16.50
2022-08-08T07:24:44.502Z,16.60
2022-08-08T07:27:17.110Z,16.80
2022-08-08T07:30:02.702Z,16.90
2022-08-08T07:32:39.812Z,17.00
2022-08-08T07:35:11.173Z,17.00
2022-08-08T07:37:55.613Z,17.10
2022-08-08T07:40:43.775Z,17.20
2022-08-08T07:43:14.229Z,17.30
2022-08-08T07:46:05.818Z,17.40
2022-08-08T07:48:35.802Z,17.50
2022-08-08T07:51:04.648Z,17.60
2022-08-08T07:54:01.022Z,17.70
2022-08-08T07:56:59.952Z,17.90
2022-08-08T07:59:37.728Z,17.90
2022-08-08T08:02:33.537Z,18.00
2022-08-08T08:05:04.314Z,18.00
2022-08-08T08:07:52.844Z,18.20
2022-08-08T08:10:30.279Z,18.20
2022-08-08T08:13:25.722Z,18.30
2022-08-08T08:16:23.170Z,18.40
2022-08-08T08:18:58.611Z,18.50
2022-08-08T08:21:57.771Z,18.50
2022-08-08T08:24:42.787Z,18.60
2022-08-08T08:27:12.302Z,18.70
2022-08-08T08:29:43.676Z,18.70
2022-08-08T08:32:31.467Z,18.80
2022-08-08T08:35:06.534Z,18.90
2022-08-08T08:37:53.051Z,19.00
2022-08-08T08:40:25.173Z,19.10
2022-08-08T08:42:55.900Z,19.10
2022-08-08T08:45:26.301Z,19.20
2022-08-08T08:48:01.088Z,19.40
2022-08-08T08:50:35.515Z,19.50
2022-08-08T08:53:40.815Z,19.70
2022-08-08T08:56:08.514Z,19.80
2022-08-08T08:58:46.511Z,19.90
2022-08-08T09:01:27.443Z,20.00
2022-08-08T09:04:00.412Z,20.10
2022-08-08T09:06:50.104Z,20.30
2022-08-08T09:09:40.262Z,20.40
2022-08-08T09:12:20.441Z,20.50
2022-08-08T09:14:58.815Z,20.60
2022-08-08T09:17:41.489Z,20.70
2022-08-08T09:22:02.440Z,20.80
2022-08-08T09:23:10.494Z,20.90
2022-08-08T09:25:57.844Z,21.00
2022-08-08T09:28:38.596Z,21.10
2022-08-08T09:31:56.051Z,21.20
2022-08-08T09:34:34.234Z,21.30
2022-08-08T09:37:58.962Z,21.30
2022-08-08T09:40:10.521Z,21.40
2022-08-08T09:42:51.597Z,21.60
2022-08-08T09:45:55.012Z,21.60
2022-08-08T09:48:22.778Z,21.70
2022-08-08T09:51:05.151Z,21.90
2022-08-08T09:53:59.724Z,22.00
2022-08-08T09:56:40.985Z,22.10
2022-08-08T10:00:02.172Z,22.20
2022-08-08T10:02:12.763Z,22.20
2022-08-08T10:04:47.787Z,22.30
2022-08-08T10:07:17.020Z,23.10
2022-08-08T10:09:59.879Z,22.50
2022-08-08T10:12:53.140Z,22.50
2022-08-08T10:15:27.421Z,22.60
2022-08-08T10:18:09.071Z,22.80
2022-08-08T10:20:57.349Z,22.70
2022-08-08T10:23:58.742Z,22.70
2022-08-08T10:26:58.563Z,22.80
2022-08-08T10:29:59.910Z,22.90
2022-08-08T10:32:34.142Z,23.00
2022-08-08T10:36:06.651Z,23.10
2022-08-08T10:38:19.269Z,23.20
2022-08-08T10:41:06.918Z,23.00
2022-08-08T10:43:40.330Z,23.30
2022-08-08T10:46:30.197Z,23.40
2022-08-08T10:48:59.553Z,23.40
2022-08-08T10:51:40.840Z,23.50
2022-08-08T10:54:25.152Z,23.60
2022-08-08T10:56:57.953Z,23.70
2022-08-08T10:59:30.873Z,23.80
2022-08-08T11:01:59.784Z,23.90
2022-08-08T11:04:29.415Z,23.90
2022-08-08T11:07:00.989Z,24.00
2022-08-08T11:09:32.255Z,24.10
2022-08-08T11:12:12.753Z,24.30
2022-08-08T11:15:00.052Z,24.40
2022-08-08T11:18:00.182Z,24.60
2022-08-08T11:20:28.900Z,24.70
2022-08-08T11:23:05.242Z,24.80
2022-08-08T11:25:52.477Z,24.90
2022-08-08T11:28:25.013Z,25.00
2022-08-08T11:31:03.699Z,25.20
2022-08-08T11:33:53.481Z,25.20
2022-08-08T11:36:23.179Z,25.10
2022-08-08T11:38:57.978Z,25.00
2022-08-08T11:41:39.416Z,25.10
2022-08-08T11:44:14.958Z,25.30
2022-08-08T11:46:43.383Z,25.40
2022-08-08T11:49:14.093Z,25.60
2022-08-08T11:51:50.045Z,25.60
2022-08-08T11:54:44.797Z,25.50
2022-08-08T11:57:30.146Z,25.40
2022-08-08T12:00:07.245Z,25.40
2022-08-08T12:02:51.915Z,25.50
2022-08-08T12:05:30.497Z,25.60
2022-08-08T12:08:01.668Z,25.70
2022-08-08T12:10:30.599Z,25.90
2022-08-08T12:13:14.261Z,26.20
2022-08-08T12:15:51.478Z,26.30
2022-08-08T12:18:27.627Z,26.30
2022-08-08T12:20:58.973Z,26.20
2022-08-08T12:23:40.726Z,26.20
2022-08-08T12:26:27.734Z,26.20
2022-08-08T12:29:21.220Z,26.30
2022-08-08T12:32:20.378Z,26.30
2022-08-08T12:35:04.838Z,26.30
2022-08-08T12:38:01.998Z,26.30
2022-08-08T12:40:57.025Z,26.10
2022-08-08T12:43:47.724Z,26.00
2022-08-08T12:46:28.685Z,25.90
2022-08-08T12:51:59.150Z,26.10
2022-08-08T12:54:39.297Z,26.30
2022-08-08T12:57:20.850Z,26.50
2022-08-08T13:00:04.925Z,26.80
2022-08-08T13:03:54.075Z,27.00
2022-08-08T13:06:56.811Z,26.90
2022-08-08T13:14:15.323Z,26.70
2022-08-08T13:16:43.432Z,26.80
2022-08-08T13:19:17.840Z,26.90
2022-08-08T13:21:52.660Z,27.00
2022-08-08T13:24:38.550Z,27.20
2022-08-08T13:27:14.760Z,27.30
2022-08-08T13:30:00.998Z,27.40
2022-08-08T13:32:35.909Z,27.50
2022-08-08T13:35:24.456Z,27.40
2022-08-08T13:38:06.844Z,27.30
2022-08-08T13:40:36.121Z,27.10
2022-08-08T13:43:09.389Z,27.10
2022-08-08T13:45:37.005Z,27.20
2022-08-08T13:48:13.247Z,27.60
2022-08-08T13:50:55.100Z,28.20
2022-08-08T13:53:31.418Z,28.60
2022-08-08T13:56:05.858Z,28.70
2022-08-08T13:58:34.531Z,28.60
2022-08-08T14:01:18.673Z,28.40
2022-08-08T14:03:57.557Z,28.40
2022-08-08T14:06:32.936Z,29.00
2022-08-08T14:09:25.134Z,30.10
2022-08-08T14:11:49.824Z,31.30
2022-08-08T14:14:20.542Z,32.60
2022-08-08T14:16:50.248Z,33.50
2022-08-08T14:19:22.868Z,33.60
2022-08-08T14:22:20.635Z,33.80
2022-08-08T14:24:54.649Z,34.40
2022-08-08T14:27:28.798Z,35.00
2022-08-08T14:30:18.882Z,34.80
2022-08-08T14:32:47.822Z,34.50
2022-08-08T14:35:34.984Z,34.20
2022-08-08T14:38:34.412Z,34.20
2022-08-08T14:40:59.621Z,34.60
2022-08-08T14:44:02.885Z,35.30
2022-08-08T14:46:31.073Z,36.00
2022-08-08T14:49:09.126Z,36.70
2022-08-08T14:51:53.203Z,37.30
2022-08-08T14:54:29.178Z,37.70
2022-08-08T14:56:58.600Z,38.00
2022-08-08T14:59:50.942Z,38.00
2022-08-08T15:02:25.801Z,37.80
2022-08-08T15:05:07.956Z,35.30
2022-08-08T15:07:40.657Z,36.60
2022-08-08T15:10:11.661Z,35.60
2022-08-08T15:12:41.592Z,34.80
2022-08-08T15:16:02.589Z,34.80
2022-08-08T15:18:10.563Z,35.60
2022-08-08T15:20:40.772Z,35.30
2022-08-08T15:23:09.194Z,35.60
2022-08-08T15:25:42.544Z,35.50
2022-08-08T15:28:33.353Z,34.60
2022-08-08T15:31:00.416Z,34.10
2022-08-08T15:33:38.709Z,33.80
2022-08-08T15:36:17.783Z,34.00
2022-08-08T15:38:49.760Z,34.40
2022-08-08T15:41:24.806Z,34.90
2022-08-08T15:44:02.514Z,35.20
2022-08-08T15:46:34.868Z,35.50
2022-08-08T15:49:08.193Z,35.50
2022-08-08T15:51:40.724Z,35.60
2022-08-08T15:54:18.339Z,36.00
2022-08-08T15:57:02.286Z,36.30
2022-08-08T16:00:25.585Z,36.40
2022-08-08T16:02:18.191Z,36.30
2022-08-08T16:04:46.714Z,36.00
2022-08-08T16:07:24.392Z,35.40
2022-08-08T16:13:03.134Z,34.30
2022-08-08T16:13:03.964Z,33.50
2022-08-08T16:15:58.574Z,32.80
2022-08-08T16:18:32.991Z,32.10
2022-08-08T16:21:01.271Z,31.50
2022-08-08T16:23:32.203Z,31.00
2022-08-08T16:26:04.151Z,30.50
2022-08-08T16:28:35.855Z,29.80
2022-08-08T16:31:07.636Z,28.60
2022-08-08T16:33:38.823Z,28.70
2022-08-08T16:36:33.469Z,28.80
2022-08-08T16:39:16.777Z,26.80
2022-08-08T16:42:01.160Z,28.10
2022-08-08T16:44:33.735Z,27.50
2022-08-08T16:47:21.881Z,27.40
2022-08-08T16:50:11.119Z,27.90
2022-08-08T16:55:02.048Z,27.10
2022-08-08T16:55:53.904Z,26.80
2022-08-08T16:58:25.679Z,26.80
2022-08-08T17:01:17.050Z,26.30
2022-08-08T17:03:58.621Z,26.40
2022-08-08T17:06:37.374Z,26.40
2022-08-08T17:09:14.619Z,25.90
2022-08-08T17:11:55.615Z,25.80
2022-08-08T17:14:34.209Z,25.60
2022-08-08T17:17:41.721Z,26.00
2022-08-08T17:19:58.071Z,26.00
2022-08-08T17:22:38.918Z,25.40
2022-08-08T17:25:08.562Z,25.30
2022-08-08T17:27:46.189Z,25.30
2022-08-08T17:30:27.276Z,25.20
2022-08-08T17:34:53.980Z,25.10
2022-08-08T17:35:55.173Z,25.00
2022-08-08T17:38:32.660Z,25.00
2022-08-08T17:41:00.558Z,24.90
2022-08-08T17:43:30.852Z,25.00
2022-08-08T17:46:37.934Z,24.80
2022-08-08T17:49:07.085Z,24.80
2022-08-08T17:51:39.844Z,24.70
2022-08-08T17:54:21.919Z,24.70
2022-08-08T17:56:51.303Z,24.80
2022-08-08T17:59:23.459Z,24.70
2022-08-08T18:02:11.154Z,24.40
2022-08-08T18:04:50.958Z,24.30
2022-08-08T18:08:01.965Z,24.20
2022-08-08T18:10:14.054Z,25.90
2022-08-08T18:12:42.892Z,24.20
2022-08-08T18:15:14.448Z,24.20
2022-08-08T18:18:09.828Z,24.10
2022-08-08T18:20:54.850Z,23.80
2022-08-08T18:23:23.588Z,23.80
2022-08-08T18:25:51.679Z,23.70
2022-08-08T18:28:19.242Z,23.60
2022-08-08T18:30:53.480Z,23.50
2022-08-08T18:34:10.487Z,23.40
2022-08-08T18:36:18.926Z,22.60
2022-08-08T18:38:53.830Z,23.30
2022-08-08T18:41:51.464Z,23.20
2022-08-08T18:44:12.730Z,22.90
2022-08-08T18:46:54.274Z,22.90
2022-08-08T18:49:32.542Z,22.60
2022-08-08T18:52:18.518Z,22.50
2022-08-08T18:54:59.282Z,22.30
2022-08-08T18:57:31.875Z,22.20
2022-08-08T19:00:16.862Z,22.00
2022-08-08T19:02:56.566Z,22.10
2022-08-08T19:05:30.565Z,21.80
2022-08-08T19:08:36.990Z,21.90
2022-08-08T19:11:22.351Z,21.50
2022-08-08T19:13:56.841Z,21.40
2022-08-08T19:16:32.091Z,21.20
2022-08-08T19:19:14.020Z,21.10
2022-08-08T19:21:48.935Z,21.10
2022-08-08T19:24:41.741Z,20.90
2022-08-08T19:27:07.696Z,20.90
2022-08-08T19:29:40.737Z,20.70
2022-08-08T19:32:19.323Z,20.60
2022-08-08T19:34:51.324Z,20.50
2022-08-08T19:37:42.701Z,20.40
2022-08-08T19:40:16.015Z,20.90
2022-08-08T19:42:49.184Z,20.40
2022-08-08T19:45:59.331Z,20.10
2022-08-08T19:48:30.678Z,20.30
2022-08-08T19:51:08.162Z,20.20
2022-08-08T19:53:51.069Z,19.90
2022-08-08T19:56:25.759Z,21.00
2022-08-08T19:59:10.395Z,19.80
2022-08-08T20:02:02.381Z,19.70
2022-08-08T20:04:31.555Z,19.60
2022-08-08T20:07:05.278Z,20.40
2022-08-08T20:09:55.910Z,19.50
2022-08-08T20:12:32.142Z,19.60
2022-08-08T20:15:16.804Z,19.50
2022-08-08T20:17:47.339Z,19.30
2022-08-08T20:20:20.457Z,19.40
2022-08-08T20:22:54.235Z,19.20
2022-08-08T20:25:24.633Z,19.20
2022-08-08T20:27:55.444Z,19.10
2022-08-08T20:30:53.368Z,19.00
2022-08-08T20:35:58.030Z,18.90
2022-08-08T20:38:32.886Z,18.90
2022-08-08T20:41:16.952Z,18.80
2022-08-08T20:43:49.792Z,18.70
2022-08-08T20:46:25.768Z,18.60
2022-08-08T20:48:58.367Z,18.50
2022-08-08T20:51:32.431Z,18.40
2022-08-08T20:54:10.528Z,18.40
2022-08-08T20:57:05.814Z,18.20
2022-08-08T20:59:29.982Z,18.20
2022-08-08T21:02:06.771Z,18.10
2022-08-08T21:04:36.622Z,18.00
2022-08-08T21:07:08.252Z,18.00
2022-08-08T21:10:02.197Z,18.00
2022-08-08T21:12:32.108Z,17.90
2022-08-08T21:15:16.311Z,17.60
2022-08-08T21:18:03.309Z,17.80
2022-08-08T21:20:34.154Z,17.80
2022-08-08T21:23:03.029Z,17.70
2022-08-08T21:25:36.079Z,17.70
2022-08-08T21:28:16.459Z,17.70
2022-08-08T21:31:00.520Z,17.60
2022-08-08T21:33:48.166Z,17.50
2022-08-08T21:36:20.952Z,17.40
2022-08-08T21:39:00.020Z,17.40
2022-08-08T21:41:43.007Z,17.00
2022-08-08T21:44:19.429Z,17.30
2022-08-08T21:48:16.311Z,17.20
2022-08-08T21:49:37.376Z,17.10
2022-08-08T21:54:33.970Z,17.00
2022-08-08T21:55:03.516Z,17.00
2022-08-08T21:57:42.029Z,16.90
2022-08-08T22:00:17.266Z,16.90
2022-08-08T22:02:54.120Z,16.80
2022-08-08T22:05:22.736Z,16.80
2022-08-08T22:07:50.609Z,16.70
2022-08-08T22:10:28.660Z,16.70
2022-08-08T22:13:17.814Z,16.60
2022-08-08T22:15:59.066Z,16.60
2022-08-08T22:18:30.314Z,16.50
2022-08-08T22:21:13.904Z,16.50
2022-08-08T22:23:51.603Z,16.40
2022-08-08T22:26:30.720Z,17.90
2022-08-08T22:29:13.484Z,16.30
2022-08-08T22:31:58.588Z,16.30
2022-08-08T22:34:39.486Z,16.30
2022-08-08T22:37:27.536Z,16.20
2022-08-08T22:40:00.918Z,16.20
2022-08-08T22:42:34.286Z,16.20
2022-08-08T22:45:12.171Z,16.10
2022-08-08T22:47:46.630Z,16.10
2022-08-08T22:50:25.414Z,16.10
2022-08-08T22:54:15.777Z,16.10
2022-08-08T22:55:58.292Z,16.00
2022-08-08T22:58:33.770Z,16.00
2022-08-08T23:01:16.700Z,15.90
2022-08-08T23:03:59.536Z,15.90
2022-08-08T23:06:27.475Z,16.70
2022-08-08T23:08:58.935Z,15.90
2022-08-08T23:11:31.222Z,15.90
2022-08-08T23:14:18.757Z,15.80
2022-08-08T23:16:57.461Z,15.80
2022-08-08T23:19:32.197Z,15.80
2022-08-08T23:22:06.462Z,15.70
2022-08-08T23:24:41.706Z,15.70
2022-08-08T23:27:11.072Z,15.60
2022-08-08T23:29:55.164Z,15.70
2022-08-08T23:32:25.225Z,15.60
2022-08-08T23:34:59.030Z,15.60
2022-08-08T23:38:00.662Z,15.50
2022-08-08T23:40:16.836Z,15.50
2022-08-08T23:42:49.823Z,15.50
2022-08-08T23:45:19.212Z,15.40
2022-08-08T23:49:05.056Z,15.40
2022-08-08T23:50:57.446Z,15.40
2022-08-08T23:53:55.722Z,15.30
2022-08-08T23:56:13.413Z,15.30
2022-08-08T23:58:51.499Z,15.30
